6B9

Skaneateles Aero Drome Airport

Skaneateles, New York, USA
METAR K6B9 161955Z AUTO VRB05KT 10SM CLR 33/18 A2990 RMK AO2
Observed Flight Rules
Jul-16 @ 19:55 UTC (11 minutes ago) Visual Flight Rules
Wind Visibility Clouds
Variable at 5 knots 10 miles
  • Clear skies
Temperatures Readings
Current 33°C / 91°F
Dewpoint 18°C / 64°F
Humidity 41%
Altimeter 29.9" Hg
Pressure 1013 hPa
Elevation 316
METAR K6B9 161955Z AUTO VRB05KT 10SM CLR 33/18 A2990 RMK AO2
Observed Flight Rules
Jul-16 @ 19:55 UTC
(11 minutes ago)
VFR
Wind Visibility
Variable at 5 knots 10 miles
Clouds
  • Clear skies
Temperature Dewpoint
33°C / 91°F 18°C / 64°F
Humidity Altimeter Pressure
41% 29.9" Hg 1013 hPa